createdAt,value
2022-09-26T00:01:45.339Z,99.90
2022-09-26T00:06:48.209Z,99.90
2022-09-26T00:11:50.899Z,99.90
2022-09-26T00:16:53.903Z,99.90
2022-09-26T00:21:56.290Z,99.90
2022-09-26T00:26:58.640Z,99.90
2022-09-26T00:32:01.096Z,99.90
2022-09-26T00:37:03.448Z,99.90
2022-09-26T00:42:05.835Z,99.90
2022-09-26T00:47:20.196Z,99.90
2022-09-26T00:52:28.303Z,99.90
2022-09-26T00:57:37.975Z,99.90
2022-09-26T01:02:41.189Z,99.90
2022-09-26T01:07:44.550Z,99.90
2022-09-26T01:12:47.675Z,99.90
2022-09-26T01:17:51.007Z,99.90
2022-09-26T01:23:11.834Z,99.90
2022-09-26T01:28:42.684Z,99.90
2022-09-26T01:33:55.862Z,99.90
2022-09-26T01:39:18.729Z,99.90
2022-09-26T01:44:39.712Z,99.90
2022-09-26T01:49:48.363Z,99.90
2022-09-26T01:55:01.340Z,99.90
2022-09-26T02:00:06.674Z,99.90
2022-09-26T02:05:26.584Z,99.90
2022-09-26T02:10:36.580Z,99.90
2022-09-26T02:15:40.538Z,99.90
2022-09-26T02:20:49.355Z,99.90
2022-09-26T02:25:51.694Z,99.90
2022-09-26T02:30:54.965Z,99.90
2022-09-26T02:35:58.782Z,99.90
2022-09-26T02:41:29.094Z,99.90
2022-09-26T02:47:16.090Z,99.90
2022-09-26T02:52:24.536Z,99.90
2022-09-26T02:57:54.027Z,99.90
2022-09-26T03:03:15.843Z,99.90
2022-09-26T03:08:29.349Z,99.90
2022-09-26T03:13:37.822Z,99.90
2022-09-26T03:18:54.705Z,99.90
2022-09-26T03:23:59.116Z,99.90
2022-09-26T03:29:02.422Z,99.90
2022-09-26T03:34:07.013Z,99.90
2022-09-26T03:39:09.500Z,99.90
2022-09-26T03:44:26.161Z,99.90
2022-09-26T03:49:47.047Z,99.90
2022-09-26T03:54:49.462Z,99.90
2022-09-26T03:59:52.585Z,99.90
2022-09-26T04:04:55.264Z,99.90
2022-09-26T04:09:57.600Z,99.90
2022-09-26T04:15:00.248Z,99.90
2022-09-26T04:20:06.954Z,99.90
2022-09-26T04:25:11.030Z,99.90
2022-09-26T04:30:14.370Z,99.90
2022-09-26T04:35:25.478Z,99.90
2022-09-26T04:40:29.185Z,99.90
2022-09-26T04:45:43.370Z,99.90
2022-09-26T04:50:46.523Z,99.90
2022-09-26T04:55:49.807Z,99.90
2022-09-26T05:00:52.641Z,99.90
2022-09-26T05:06:09.034Z,99.90
2022-09-26T05:11:12.419Z,99.90
2022-09-26T05:16:18.636Z,99.90
2022-09-26T05:21:26.403Z,99.90
2022-09-26T05:26:44.357Z,99.90
2022-09-26T05:31:47.048Z,99.90
2022-09-26T05:36:51.953Z,99.90
2022-09-26T05:41:55.151Z,99.90
2022-09-26T05:46:59.671Z,99.90
2022-09-26T05:52:04.106Z,99.90
2022-09-26T05:57:07.098Z,99.90
2022-09-26T06:02:28.426Z,99.90
2022-09-26T06:07:45.757Z,99.90
2022-09-26T06:13:07.951Z,99.90
2022-09-26T06:18:24.439Z,99.90
2022-09-26T06:23:26.992Z,99.90
2022-09-26T06:28:30.626Z,99.90
2022-09-26T06:33:33.589Z,99.90
2022-09-26T06:39:02.340Z,99.90
2022-09-26T06:44:09.854Z,99.90
2022-09-26T06:49:31.285Z,99.90
2022-09-26T06:54:38.713Z,99.90
2022-09-26T06:59:41.005Z,99.90
2022-09-26T07:05:16.779Z,99.90
2022-09-26T07:10:30.558Z,99.90
2022-09-26T07:15:44.285Z,99.90
2022-09-26T07:21:13.351Z,99.90
2022-09-26T07:26:43.293Z,99.90
2022-09-26T07:31:46.242Z,99.90
2022-09-26T07:37:17.891Z,99.90
2022-09-26T07:42:22.090Z,99.90
2022-09-26T07:47:43.796Z,99.90
2022-09-26T07:53:06.243Z,99.90
2022-09-26T07:58:08.731Z,99.90
2022-09-26T08:03:14.084Z,99.90
2022-09-26T08:08:18.298Z,99.90
2022-09-26T08:13:36.062Z,99.90
2022-09-26T08:18:54.601Z,99.90
2022-09-26T08:23:57.645Z,99.90
2022-09-26T08:29:18.643Z,99.90
2022-09-26T08:34:25.979Z,99.90
2022-09-26T08:39:48.247Z,99.90
2022-09-26T08:46:00.268Z,99.90
2022-09-26T08:51:41.413Z,99.90
2022-09-26T08:56:56.298Z,99.90
2022-09-26T09:02:05.037Z,99.90
2022-09-26T09:07:26.729Z,99.90
2022-09-26T09:12:46.804Z,99.90
2022-09-26T09:18:29.222Z,99.90
2022-09-26T09:24:07.527Z,99.90
2022-09-26T09:29:29.699Z,99.90
2022-09-26T09:35:20.587Z,99.90
2022-09-26T09:40:45.544Z,99.90
2022-09-26T09:45:50.339Z,99.90
2022-09-26T09:51:05.740Z,99.90
2022-09-26T09:56:13.119Z,99.90
2022-09-26T10:01:25.193Z,99.90
2022-09-26T10:06:45.820Z,99.90
2022-09-26T10:11:54.781Z,99.90
2022-09-26T10:17:18.815Z,99.90
2022-09-26T10:22:45.558Z,99.90
2022-09-26T10:28:05.291Z,99.90
2022-09-26T10:33:25.228Z,99.20
2022-09-26T10:38:54.431Z,99.20
2022-09-26T10:43:57.651Z,98.40
2022-09-26T10:49:23.697Z,98.40
2022-09-26T10:55:04.200Z,96.80
2022-09-26T11:00:08.623Z,93.70
2022-09-26T11:05:29.911Z,92.90
2022-09-26T11:10:50.532Z,90.60
2022-09-26T11:16:14.711Z,90.60
2022-09-26T11:21:51.368Z,83.10
2022-09-26T11:27:19.457Z,81.90
2022-09-26T11:32:33.542Z,75.10
2022-09-26T11:38:41.291Z,77.60
2022-09-26T11:44:06.962Z,80.40
2022-09-26T11:49:40.296Z,78.50
2022-09-26T11:55:31.149Z,77.50
2022-09-26T12:00:48.102Z,78.80
2022-09-26T12:06:10.315Z,82.60
2022-09-26T12:11:34.209Z,82.30
2022-09-26T12:17:21.191Z,82.80
2022-09-26T12:22:38.954Z,84.00
2022-09-26T12:27:50.730Z,83.80
2022-09-26T12:33:01.988Z,82.80
2022-09-26T12:38:32.483Z,79.10
2022-09-26T12:43:59.539Z,75.60
2022-09-26T12:49:02.018Z,78.80
2022-09-26T12:54:33.128Z,81.70
2022-09-26T12:59:56.148Z,84.80
2022-09-26T13:05:21.109Z,87.30
2022-09-26T13:10:51.907Z,88.50
2022-09-26T13:16:20.539Z,90.00
2022-09-26T13:21:39.270Z,90.60
2022-09-26T13:26:46.992Z,91.20
2022-09-26T13:31:58.851Z,92.00
2022-09-26T13:37:04.622Z,92.60
2022-09-26T13:42:18.615Z,94.30
2022-09-26T13:47:40.849Z,95.80
2022-09-26T13:53:20.387Z,97.10
2022-09-26T13:58:26.556Z,96.70
2022-09-26T14:03:37.921Z,97.10
2022-09-26T14:09:17.694Z,96.30
2022-09-26T14:14:24.496Z,90.90
2022-09-26T14:19:48.739Z,79.10
2022-09-26T14:24:51.783Z,72.40
2022-09-26T14:30:00.856Z,65.90
2022-09-26T14:35:16.794Z,61.70
2022-09-26T14:40:19.145Z,59.10
2022-09-26T14:45:26.889Z,58.40
2022-09-26T14:50:35.321Z,56.70
2022-09-26T14:56:12.722Z,53.90
2022-09-26T15:01:37.534Z,54.10
2022-09-26T15:06:43.957Z,51.90
2022-09-26T15:11:51.702Z,51.10
2022-09-26T15:16:56.923Z,51.60
2022-09-26T15:22:03.069Z,51.70
2022-09-26T15:27:10.805Z,50.70
2022-09-26T15:32:17.169Z,54.20
2022-09-26T15:37:26.926Z,59.00
2022-09-26T15:42:48.936Z,63.40
2022-09-26T15:47:51.737Z,61.90
2022-09-26T15:53:08.258Z,61.70
2022-09-26T15:58:16.432Z,60.40
2022-09-26T16:03:54.017Z,58.90
2022-09-26T16:09:01.630Z,57.70
2022-09-26T16:14:04.395Z,62.30
2022-09-26T16:19:07.696Z,68.50
2022-09-26T16:24:30.622Z,73.20
2022-09-26T16:29:35.443Z,78.60
2022-09-26T16:34:37.778Z,83.30
2022-09-26T16:39:40.143Z,86.50
2022-09-26T16:44:55.720Z,88.80
2022-09-26T16:50:16.156Z,90.30
2022-09-26T16:55:19.299Z,91.30
2022-09-26T17:00:43.525Z,92.30
2022-09-26T17:05:46.001Z,93.00
2022-09-26T17:10:48.630Z,93.90
2022-09-26T17:15:54.777Z,94.40
2022-09-26T17:20:59.158Z,94.60
2022-09-26T17:26:01.833Z,95.20
2022-09-26T17:31:07.619Z,96.00
2022-09-26T17:36:19.460Z,96.80
2022-09-26T17:41:23.072Z,97.30
2022-09-26T17:46:25.664Z,97.00
2022-09-26T17:51:29.302Z,97.20
2022-09-26T17:56:31.610Z,97.20
2022-09-26T18:01:34.991Z,97.80
2022-09-26T18:06:37.881Z,98.40
2022-09-26T18:11:41.729Z,98.30
2022-09-26T18:16:46.549Z,99.00
2022-09-26T18:21:54.508Z,99.50
2022-09-26T18:27:03.428Z,99.80
2022-09-26T18:32:13.110Z,99.90
2022-09-26T18:37:15.469Z,99.90
2022-09-26T18:42:22.876Z,99.90
2022-09-26T18:47:25.215Z,99.90
2022-09-26T18:52:27.544Z,99.90
2022-09-26T18:57:48.599Z,99.90
2022-09-26T19:02:51.083Z,99.90
2022-09-26T19:07:53.546Z,99.90
2022-09-26T19:12:55.965Z,99.90
2022-09-26T19:17:58.263Z,99.90
2022-09-26T19:23:00.696Z,99.90
2022-09-26T19:28:03.078Z,99.90
2022-09-26T19:33:05.506Z,99.90
2022-09-26T19:38:25.976Z,99.90
2022-09-26T19:43:28.297Z,99.90
2022-09-26T19:48:33.998Z,99.90
2022-09-26T19:53:40.406Z,99.90
2022-09-26T19:58:43.063Z,99.90
2022-09-26T20:03:45.547Z,99.90
2022-09-26T20:08:56.433Z,99.90
2022-09-26T20:14:19.869Z,99.90
2022-09-26T20:19:37.227Z,99.90
2022-09-26T20:24:39.933Z,99.90
2022-09-26T20:30:01.059Z,99.90
2022-09-26T20:35:04.886Z,99.90
2022-09-26T20:40:12.759Z,99.90
2022-09-26T20:45:17.894Z,99.90
2022-09-26T20:50:20.850Z,99.90
2022-09-26T20:55:23.167Z,99.90
2022-09-26T21:00:25.598Z,99.90
2022-09-26T21:05:28.040Z,99.90
2022-09-26T21:10:32.487Z,99.90
2022-09-26T21:15:35.242Z,99.90
2022-09-26T21:20:37.567Z,99.90
2022-09-26T21:25:59.544Z,99.90
2022-09-26T21:31:06.472Z,99.90
2022-09-26T21:36:09.114Z,99.90
2022-09-26T21:41:12.319Z,99.90
2022-09-26T21:46:14.818Z,99.90
2022-09-26T21:51:17.301Z,99.90
2022-09-26T21:56:25.656Z,99.90
2022-09-26T22:01:28.064Z,99.90
2022-09-26T22:06:30.400Z,99.90
2022-09-26T22:11:32.835Z,99.90
2022-09-26T22:16:35.245Z,99.90
2022-09-26T22:21:37.780Z,99.90
2022-09-26T22:26:40.164Z,99.90
2022-09-26T22:31:42.695Z,99.90
2022-09-26T22:36:44.982Z,99.90
2022-09-26T22:41:47.322Z,99.90
2022-09-26T22:46:49.638Z,99.90
2022-09-26T22:51:51.956Z,99.90
2022-09-26T22:56:54.430Z,99.90
2022-09-26T23:01:57.072Z,99.90
2022-09-26T23:06:59.394Z,99.90
2022-09-26T23:12:01.836Z,99.90
2022-09-26T23:17:04.368Z,99.90
2022-09-26T23:22:06.868Z,99.90
2022-09-26T23:27:09.196Z,99.90
2022-09-26T23:32:11.545Z,99.90
2022-09-26T23:37:13.866Z,99.90
2022-09-26T23:42:16.251Z,99.90
2022-09-26T23:47:18.534Z,99.90
2022-09-26T23:52:20.907Z,99.90
2022-09-26T23:57:24.107Z,99.90
